»·PEaware :: UAL409 KRDD-KPDX

UAL409 :: KRDD-KPDX

FLIGHT INFORMATION

Flight Status: Arrived
Operator:
United Airlines
More flights by this operator :: More flights under this callsign
Pilot: Ben L. (6391)
Aircraft: BOEING 737-200
(B732)
More flights by this aircraft type
Origin: KRDD Redding Mun
United States
Destination: KPDX Portland Intl
United States
More flights between these airports :: More routes between these airports
Route: KREST3 KREST OED OCITY2
File this flight plan on PilotEdge
Remarks:
Altitude:
(Current/Filed)
28,000ft
Speed:
(Current/Filed)
430kts
Departed: 04-Oct-19 04:07 PM
Arrived: 04-Oct-19 05:06 PM
Distance/Time
Traveled:
305nm/0:58
Distance/Time
To Go:
Arrived

Flight Plot

Page will automatically refresh every two minutes.

Flight plan parsing failed; only flown route is shown


Map Options




Map Legend


Flown Route
Filed Route
Departure Airport
Arrival Airport
Navaid (VOR, NDB)
Fix

Horizontal Profiles

Position Reports

Time Latitude Longitude Heading Altitude Ground
Speed
04-Oct-19 15:05 40.505357 -122.298994 315 501ft 0kts
04-Oct-19 15:06 40.505357 -122.298994 315 501ft 0kts
04-Oct-19 15:07 40.505357 -122.298994 315 501ft 0kts
04-Oct-19 15:08 40.505357 -122.298994 315 501ft 0kts
04-Oct-19 15:09 40.505357 -122.298994 315 501ft 0kts
04-Oct-19 15:10 40.505357 -122.298994 315 501ft 0kts
04-Oct-19 15:11 40.505357 -122.298994 315 501ft 0kts
04-Oct-19 15:12 40.505357 -122.298994 315 501ft 0kts
04-Oct-19 15:13 40.505357 -122.298994 315 501ft 0kts
04-Oct-19 15:14 40.505357 -122.298994 315 501ft 0kts
04-Oct-19 15:15 40.505357 -122.298994 315 501ft 0kts
04-Oct-19 15:16 40.505357 -122.298994 315 501ft 0kts
04-Oct-19 15:17 40.505357 -122.298994 315 501ft 0kts
04-Oct-19 15:18 40.505357 -122.298994 315 501ft 0kts
04-Oct-19 15:19 40.505357 -122.298994 315 501ft 0kts
04-Oct-19 15:20 40.505357 -122.298994 315 501ft 0kts
04-Oct-19 15:21 40.505357 -122.298994 315 501ft 0kts
04-Oct-19 15:22 40.505357 -122.298994 315 501ft 0kts
04-Oct-19 15:23 40.505357 -122.298994 315 501ft 0kts
04-Oct-19 15:24 40.505357 -122.298994 315 501ft 0kts
04-Oct-19 15:25 40.505357 -122.298994 315 501ft 0kts
04-Oct-19 15:26 40.505357 -122.298994 315 501ft 0kts
04-Oct-19 15:27 40.505357 -122.298994 315 501ft 0kts
04-Oct-19 15:28 40.505357 -122.298994 315 501ft 0kts
04-Oct-19 15:29 40.505357 -122.298994 315 501ft 0kts
04-Oct-19 15:30 40.505357 -122.298994 315 501ft 0kts
04-Oct-19 15:32 40.505357 -122.298994 315 501ft 0kts
04-Oct-19 15:33 40.505357 -122.298994 315 501ft 0kts
04-Oct-19 15:34 40.505357 -122.298994 315 501ft 0kts
04-Oct-19 15:35 40.505357 -122.298994 315 501ft 0kts
04-Oct-19 15:36 40.505357 -122.298994 315 501ft 0kts
04-Oct-19 15:37 40.505357 -122.298994 315 501ft 0kts
04-Oct-19 15:38 40.505357 -122.298994 315 501ft 0kts
04-Oct-19 15:39 40.505357 -122.298994 315 501ft 0kts
04-Oct-19 15:40 40.505357 -122.298994 315 501ft 0kts
04-Oct-19 15:41 40.505357 -122.298994 315 501ft 0kts
04-Oct-19 15:42 40.505357 -122.298994 315 501ft 0kts
04-Oct-19 15:43 40.505357 -122.298994 315 501ft 0kts
04-Oct-19 15:44 40.505357 -122.298994 315 501ft 0kts
04-Oct-19 15:45 40.505357 -122.298994 315 501ft 0kts
04-Oct-19 15:46 40.505357 -122.298994 315 501ft 0kts
04-Oct-19 15:47 40.505357 -122.298994 315 501ft 0kts
04-Oct-19 15:48 40.505357 -122.298994 315 501ft 0kts
04-Oct-19 15:49 40.505357 -122.298994 315 501ft 0kts
04-Oct-19 15:50 40.505357 -122.298994 315 501ft 0kts
04-Oct-19 15:50 40.505357 -122.298994 315 501ft 0kts
04-Oct-19 15:52 40.505357 -122.298994 315 501ft 0kts
04-Oct-19 15:53 40.505357 -122.298994 315 501ft 0kts
04-Oct-19 15:53 40.505357 -122.298994 315 501ft 0kts
04-Oct-19 15:54 40.505359 -122.298997 315 501ft 0kts
04-Oct-19 15:56 40.505515 -122.298387 185 501ft 2kts
04-Oct-19 15:56 40.505701 -122.298404 175 501ft 0kts
04-Oct-19 15:57 40.505701 -122.298404 175 501ft 0kts
04-Oct-19 15:59 40.505700 -122.298404 174 501ft 0kts
04-Oct-19 15:59 40.505700 -122.298404 174 501ft 0kts
04-Oct-19 16:00 40.503241 -122.297725 135 501ft 13kts
04-Oct-19 16:01 40.502376 -122.296502 134 501ft 0kts
04-Oct-19 16:02 40.502012 -122.296040 136 501ft 0kts
04-Oct-19 16:03 40.501495 -122.295234 96 501ft 11kts
04-Oct-19 16:04 40.501787 -122.294894 2 501ft 0kts
04-Oct-19 16:05 40.501787 -122.294894 2 501ft 0kts
04-Oct-19 16:06 40.521999 -122.294843 0 636ft 175kts
04-Oct-19 16:07 40.572943 -122.268281 15 3223ft 238kts
04-Oct-19 16:08 40.633825 -122.252912 11 7607ft 221kts
04-Oct-19 16:09 40.706008 -122.230282 2 9982ft 281kts
04-Oct-19 16:10 40.782326 -122.254554 344 12483ft 306kts
04-Oct-19 16:11 40.869646 -122.277368 348 15062ft 327kts
04-Oct-19 16:12 40.961958 -122.294285 349 17476ft 339kts
04-Oct-19 16:13 41.056205 -122.313562 345 19758ft 345kts
04-Oct-19 16:14 41.144885 -122.341511 339 21765ft 346kts
04-Oct-19 16:15 41.234992 -122.385410 332 23607ft 347kts
04-Oct-19 16:16 41.322528 -122.440279 329 25249ft 349kts
04-Oct-19 16:17 41.411448 -122.494664 333 26653ft 355kts
04-Oct-19 16:18 41.506152 -122.537276 339 27879ft 363kts
04-Oct-19 16:19 41.608155 -122.566779 343 28289ft 391kts
04-Oct-19 16:20 41.719733 -122.596138 341 28280ft 420kts
04-Oct-19 16:21 41.834840 -122.638164 337 28273ft 427kts
04-Oct-19 16:22 41.939973 -122.688246 334 28273ft 414kts
04-Oct-19 16:23 42.048117 -122.739147 336 28278ft 409kts
04-Oct-19 16:24 42.153981 -122.780589 338 28289ft 405kts
04-Oct-19 16:25 42.263477 -122.823305 337 28296ft 415kts
04-Oct-19 16:26 42.375020 -122.869750 337 28293ft 424kts
04-Oct-19 16:27 42.492087 -122.896352 358 28292ft 439kts
04-Oct-19 16:28 42.609550 -122.885368 353 28286ft 406kts
04-Oct-19 16:29 42.719841 -122.893517 346 28291ft 389kts
04-Oct-19 16:30 42.829898 -122.881949 359 28293ft 402kts
04-Oct-19 16:31 42.940850 -122.865184 356 28295ft 401kts
04-Oct-19 16:32 43.052835 -122.853383 354 28302ft 404kts
04-Oct-19 16:33 43.160799 -122.845474 353 28304ft 409kts
04-Oct-19 16:34 43.275386 -122.837998 353 28303ft 415kts
04-Oct-19 16:35 43.391230 -122.828379 354 28303ft 420kts
04-Oct-19 16:36 43.508669 -122.816230 355 28302ft 424kts
04-Oct-19 16:37 43.625989 -122.802664 355 28307ft 411kts
04-Oct-19 16:38 43.735701 -122.788797 354 28316ft 384kts
04-Oct-19 16:39 43.842544 -122.777046 353 28324ft 391kts
04-Oct-19 16:40 43.953516 -122.768228 353 28323ft 406kts
04-Oct-19 16:41 44.067657 -122.760474 353 28321ft 415kts
04-Oct-19 16:42 44.176836 -122.751957 354 28313ft 403kts
04-Oct-19 16:43 44.279830 -122.734980 357 27698ft 343kts
04-Oct-19 16:44 44.371200 -122.716520 355 25860ft 331kts
04-Oct-19 16:45 44.461014 -122.707777 351 23485ft 318kts
04-Oct-19 16:46 44.548323 -122.707583 350 20833ft 309kts
04-Oct-19 16:47 44.633161 -122.709990 352 18335ft 303kts
04-Oct-19 16:48 44.716461 -122.708238 356 15940ft 298kts
04-Oct-19 16:49 44.798393 -122.698585 2 13734ft 294kts
04-Oct-19 16:50 44.879115 -122.682261 5 12161ft 292kts
04-Oct-19 16:51 44.953050 -122.647030 32 11997ft 302kts
04-Oct-19 16:52 45.020178 -122.575184 34 11720ft 297kts
04-Oct-19 16:53 45.085567 -122.503756 34 10140ft 297kts
04-Oct-19 16:54 45.147773 -122.436367 34 8793ft 292kts
04-Oct-19 16:55 45.220646 -122.393510 14 7462ft 280kts
04-Oct-19 16:56 45.290094 -122.361571 13 6108ft 251kts
04-Oct-19 16:57 45.356499 -122.331512 15 4810ft 246kts
04-Oct-19 16:58 45.421374 -122.307522 343 3436ft 236kts
04-Oct-19 16:59 45.474773 -122.348478 325 2981ft 203kts
04-Oct-19 17:00 45.516306 -122.395791 300 2808ft 174kts
04-Oct-19 17:01 45.537878 -122.448011 294 1947ft 129kts
04-Oct-19 17:02 45.555710 -122.496267 295 1212ft 150kts
04-Oct-19 17:03 45.574304 -122.543125 296 423ft 132kts
04-Oct-19 17:04 45.590185 -122.583850 298 25ft 69kts
04-Oct-19 17:05 45.592080 -122.592763 267 25ft 9kts
04-Oct-19 17:06 45.592633 -122.598066 210 25ft 18kts
04-Oct-19 17:07 45.590393 -122.598953 206 25ft 1kts
04-Oct-19 17:08 45.590378 -122.598964 206 25ft 0kts
04-Oct-19 17:09 45.590378 -122.598964 206 25ft 0kts
04-Oct-19 17:10 45.590378 -122.598964 206 25ft 0kts
04-Oct-19 17:11 45.590378 -122.598964 206 25ft 0kts
04-Oct-19 17:12 45.590378 -122.598964 206 25ft 0kts

Navigation Log

Ident Type
Flight plan parsing failed, navigation log unavailable